sensor_id;sensor_type;location;lat;lon;timestamp;P1;durP1;ratioP1;P2;durP2;ratioP2
77748;SDS011;66938;52.084;5.228;2023-04-28T00:01:32;8.1;;;6.8;;
77748;SDS011;66938;52.084;5.228;2023-04-28T00:04:45;8.31;;;7.5;;
77748;SDS011;66938;52.084;5.228;2023-04-28T00:06:21;8.1;;;7.3;;
77748;SDS011;66938;52.084;5.228;2023-04-28T00:07:57;7.9;;;6.9;;
77748;SDS011;66938;52.084;5.228;2023-04-28T00:09:33;7.9;;;7.0;;
77748;SDS011;66938;52.084;5.228;2023-04-28T00:12:47;8.6;;;7.2;;
77748;SDS011;66938;52.084;5.228;2023-04-28T00:14:23;8.5;;;6.8;;
77748;SDS011;66938;52.084;5.228;2023-04-28T00:16:00;8.5;;;7.0;;
77748;SDS011;66938;52.084;5.228;2023-04-28T00:19:12;7.2;;;6.5;;
77748;SDS011;66938;52.084;5.228;2023-04-28T00:20:48;7.5;;;6.8;;
77748;SDS011;66938;52.084;5.228;2023-04-28T00:22:24;7.8;;;7.0;;
77748;SDS011;66938;52.084;5.228;2023-04-28T00:25:36;8.1;;;7.1;;
77748;SDS011;66938;52.084;5.228;2023-04-28T00:27:13;7.3;;;6.6;;
77748;SDS011;66938;52.084;5.228;2023-04-28T00:28:48;8.0;;;6.7;;
77748;SDS011;66938;52.084;5.228;2023-04-28T00:30:25;7.5;;;6.8;;
77748;SDS011;66938;52.084;5.228;2023-04-28T00:33:38;7.9;;;7.0;;
77748;SDS011;66938;52.084;5.228;2023-04-28T00:35:15;7.5;;;6.8;;
77748;SDS011;66938;52.084;5.228;2023-04-28T00:36:51;7.5;;;6.7;;
77748;SDS011;66938;52.084;5.228;2023-04-28T00:40:03;7.8;;;6.7;;
77748;SDS011;66938;52.084;5.228;2023-04-28T00:41:40;8.2;;;6.9;;
77748;SDS011;66938;52.084;5.228;2023-04-28T00:43:16;7.9;;;6.6;;
77748;SDS011;66938;52.084;5.228;2023-04-28T00:46:29;8.4;;;6.7;;
77748;SDS011;66938;52.084;5.228;2023-04-28T00:48:07;7.3;;;6.5;;
77748;SDS011;66938;52.084;5.228;2023-04-28T00:49:45;8.6;;;6.6;;
77748;SDS011;66938;52.084;5.228;2023-04-28T00:51:22;7.6;;;6.8;;
77748;SDS011;66938;52.084;5.228;2023-04-28T00:54:36;8.2;;;6.5;;
77748;SDS011;66938;52.084;5.228;2023-04-28T00:56:12;8.9;;;6.4;;
77748;SDS011;66938;52.084;5.228;2023-04-28T00:57:48;7.1;;;6.3;;
77748;SDS011;66938;52.084;5.228;2023-04-28T01:01:03;6.9;;;6.2;;
77748;SDS011;66938;52.084;5.228;2023-04-28T01:02:40;7.7;;;6.5;;
77748;SDS011;66938;52.084;5.228;2023-04-28T01:04:16;6.6;;;6.0;;
77748;SDS011;66938;52.084;5.228;2023-04-28T01:05:55;6.6;;;6.0;;
77748;SDS011;66938;52.084;5.228;2023-04-28T01:09:08;7.2;;;6.1;;
77748;SDS011;66938;52.084;5.228;2023-04-28T01:10:44;7.4;;;6.1;;
77748;SDS011;66938;52.084;5.228;2023-04-28T01:12:20;6.6;;;6.0;;
77748;SDS011;66938;52.084;5.228;2023-04-28T01:15:33;7.4;;;5.9;;
77748;SDS011;66938;52.084;5.228;2023-04-28T01:17:10;6.7;;;6.0;;
77748;SDS011;66938;52.084;5.228;2023-04-28T01:18:47;7.1;;;6.2;;
77748;SDS011;66938;52.084;5.228;2023-04-28T01:21:59;7.3;;;6.0;;
77748;SDS011;66938;52.084;5.228;2023-04-28T01:23:35;7.8;;;6.1;;
77748;SDS011;66938;52.084;5.228;2023-04-28T01:25:11;6.9;;;5.9;;
77748;SDS011;66938;52.084;5.228;2023-04-28T01:28:23;6.6;;;5.9;;
77748;SDS011;66938;52.084;5.228;2023-04-28T01:29:59;7.0;;;5.8;;
77748;SDS011;66938;52.084;5.228;2023-04-28T01:31:36;7.1;;;5.9;;
77748;SDS011;66938;52.084;5.228;2023-04-28T01:33:12;7.0;;;5.7;;
77748;SDS011;66938;52.084;5.228;2023-04-28T01:36:25;6.7;;;5.6;;
77748;SDS011;66938;52.084;5.228;2023-04-28T01:38:01;6.8;;;5.6;;
77748;SDS011;66938;52.084;5.228;2023-04-28T01:39:37;7.6;;;6.0;;
77748;SDS011;66938;52.084;5.228;2023-04-28T01:42:49;6.4;;;5.8;;
77748;SDS011;66938;52.084;5.228;2023-04-28T01:44:26;8.2;;;5.8;;
77748;SDS011;66938;52.084;5.228;2023-04-28T01:46:02;6.3;;;5.7;;
77748;SDS011;66938;52.084;5.228;2023-04-28T01:49:14;6.7;;;5.8;;
77748;SDS011;66938;52.084;5.228;2023-04-28T01:50:50;6.2;;;5.6;;
77748;SDS011;66938;52.084;5.228;2023-04-28T01:52:26;7.0;;;5.6;;
77748;SDS011;66938;52.084;5.228;2023-04-28T01:54:02;7.6;;;5.8;;
77748;SDS011;66938;52.084;5.228;2023-04-28T01:57:15;7.1;;;5.6;;
77748;SDS011;66938;52.084;5.228;2023-04-28T01:58:51;6.8;;;5.5;;
77748;SDS011;66938;52.084;5.228;2023-04-28T02:00:27;7.9;;;6.0;;
77748;SDS011;66938;52.084;5.228;2023-04-28T02:03:39;6.6;;;5.6;;
77748;SDS011;66938;52.084;5.228;2023-04-28T02:05:15;8.1;;;5.9;;
77748;SDS011;66938;52.084;5.228;2023-04-28T02:06:51;5.9;;;5.3;;
77748;SDS011;66938;52.084;5.228;2023-04-28T02:10:04;6.5;;;5.4;;
77748;SDS011;66938;52.084;5.228;2023-04-28T02:11:40;6.0;;;5.4;;
77748;SDS011;66938;52.084;5.228;2023-04-28T02:13:17;6.9;;;5.5;;
77748;SDS011;66938;52.084;5.228;2023-04-28T02:16:29;6.0;;;5.4;;
77748;SDS011;66938;52.084;5.228;2023-04-28T02:18:05;6.1;;;5.4;;
77748;SDS011;66938;52.084;5.228;2023-04-28T02:19:41;6.7;;;5.4;;
77748;SDS011;66938;52.084;5.228;2023-04-28T02:21:17;6.5;;;5.8;;
77748;SDS011;66938;52.084;5.228;2023-04-28T02:24:29;5.9;;;5.3;;
77748;SDS011;66938;52.084;5.228;2023-04-28T02:26:08;6.3;;;5.7;;
77748;SDS011;66938;52.084;5.228;2023-04-28T02:27:45;6.8;;;5.5;;
77748;SDS011;66938;52.084;5.228;2023-04-28T02:31:12;6.7;;;5.4;;
77748;SDS011;66938;52.084;5.228;2023-04-28T02:32:49;6.2;;;5.6;;
77748;SDS011;66938;52.084;5.228;2023-04-28T02:34:25;6.0;;;5.4;;
77748;SDS011;66938;52.084;5.228;2023-04-28T02:36:01;7.7;;;5.6;;
77748;SDS011;66938;52.084;5.228;2023-04-28T02:39:15;7.2;;;5.6;;
77748;SDS011;66938;52.084;5.228;2023-04-28T02:40:56;6.8;;;5.5;;
77748;SDS011;66938;52.084;5.228;2023-04-28T02:42:33;6.7;;;5.4;;
77748;SDS011;66938;52.084;5.228;2023-04-28T02:45:45;6.8;;;5.9;;
77748;SDS011;66938;52.084;5.228;2023-04-28T02:47:21;6.9;;;5.5;;
77748;SDS011;66938;52.084;5.228;2023-04-28T02:48:57;6.5;;;5.7;;
77748;SDS011;66938;52.084;5.228;2023-04-28T02:50:33;6.4;;;5.0;;
77748;SDS011;66938;52.084;5.228;2023-04-28T02:53:46;6.5;;;5.8;;
77748;SDS011;66938;52.084;5.228;2023-04-28T02:55:22;6.0;;;5.3;;
77748;SDS011;66938;52.084;5.228;2023-04-28T02:56:58;6.1;;;5.5;;
77748;SDS011;66938;52.084;5.228;2023-04-28T03:00:11;6.3;;;5.6;;
77748;SDS011;66938;52.084;5.228;2023-04-28T03:01:47;7.3;;;5.6;;
77748;SDS011;66938;52.084;5.228;2023-04-28T03:03:24;6.6;;;5.9;;
77748;SDS011;66938;52.084;5.228;2023-04-28T03:06:37;6.9;;;5.5;;
77748;SDS011;66938;52.084;5.228;2023-04-28T03:08:13;6.3;;;5.7;;
77748;SDS011;66938;52.084;5.228;2023-04-28T03:09:49;9.6;;;5.8;;
77748;SDS011;66938;52.084;5.228;2023-04-28T03:13:01;7.6;;;6.1;;
77748;SDS011;66938;52.084;5.228;2023-04-28T03:14:37;6.7;;;5.8;;
77748;SDS011;66938;52.084;5.228;2023-04-28T03:16:13;6.9;;;5.7;;
77748;SDS011;66938;52.084;5.228;2023-04-28T03:17:50;7.3;;;6.1;;
77748;SDS011;66938;52.084;5.228;2023-04-28T03:21:02;7.6;;;5.9;;
77748;SDS011;66938;52.084;5.228;2023-04-28T03:22:38;6.2;;;5.6;;
77748;SDS011;66938;52.084;5.228;2023-04-28T03:24:14;7.8;;;5.8;;
77748;SDS011;66938;52.084;5.228;2023-04-28T03:27:26;7.5;;;6.1;;
77748;SDS011;66938;52.084;5.228;2023-04-28T03:29:02;7.6;;;6.1;;
77748;SDS011;66938;52.084;5.228;2023-04-28T03:30:38;6.8;;;5.6;;
77748;SDS011;66938;52.084;5.228;2023-04-28T03:33:51;7.2;;;5.6;;
77748;SDS011;66938;52.084;5.228;2023-04-28T03:35:27;6.1;;;5.5;;
77748;SDS011;66938;52.084;5.228;2023-04-28T03:37:03;6.6;;;5.9;;
77748;SDS011;66938;52.084;5.228;2023-04-28T03:38:39;7.4;;;5.7;;
77748;SDS011;66938;52.084;5.228;2023-04-28T03:41:51;6.5;;;5.9;;
77748;SDS011;66938;52.084;5.228;2023-04-28T03:43:27;6.7;;;6.0;;
77748;SDS011;66938;52.084;5.228;2023-04-28T03:45:04;7.7;;;5.8;;
77748;SDS011;66938;52.084;5.228;2023-04-28T03:48:17;6.7;;;6.0;;
77748;SDS011;66938;52.084;5.228;2023-04-28T03:49:53;6.5;;;5.9;;
77748;SDS011;66938;52.084;5.228;2023-04-28T03:51:29;6.8;;;5.8;;
77748;SDS011;66938;52.084;5.228;2023-04-28T03:54:41;6.9;;;6.1;;
77748;SDS011;66938;52.084;5.228;2023-04-28T03:56:17;7.1;;;5.8;;
77748;SDS011;66938;52.084;5.228;2023-04-28T03:57:54;7.8;;;5.9;;
77748;SDS011;66938;52.084;5.228;2023-04-28T04:01:07;6.7;;;6.1;;
77748;SDS011;66938;52.084;5.228;2023-04-28T04:02:43;6.9;;;5.8;;
77748;SDS011;66938;52.084;5.228;2023-04-28T04:04:19;7.9;;;6.0;;
77748;SDS011;66938;52.084;5.228;2023-04-28T04:05:55;7.9;;;6.3;;
77748;SDS011;66938;52.084;5.228;2023-04-28T04:09:07;6.4;;;5.5;;
77748;SDS011;66938;52.084;5.228;2023-04-28T04:10:43;6.8;;;5.9;;
77748;SDS011;66938;52.084;5.228;2023-04-28T04:12:19;7.1;;;5.7;;
77748;SDS011;66938;52.084;5.228;2023-04-28T04:15:32;8.0;;;5.8;;
77748;SDS011;66938;52.084;5.228;2023-04-28T04:17:08;6.5;;;5.9;;
77748;SDS011;66938;52.084;5.228;2023-04-28T04:18:44;7.8;;;6.0;;
77748;SDS011;66938;52.084;5.228;2023-04-28T04:21:57;7.5;;;6.3;;
77748;SDS011;66938;52.084;5.228;2023-04-28T04:23:33;6.9;;;6.1;;
77748;SDS011;66938;52.084;5.228;2023-04-28T04:25:10;6.6;;;5.9;;
77748;SDS011;66938;52.084;5.228;2023-04-28T04:26:46;8.1;;;6.1;;
77748;SDS011;66938;52.084;5.228;2023-04-28T04:29:58;6.9;;;5.7;;
77748;SDS011;66938;52.084;5.228;2023-04-28T04:31:34;6.9;;;6.0;;
77748;SDS011;66938;52.084;5.228;2023-04-28T04:33:10;7.5;;;6.2;;
77748;SDS011;66938;52.084;5.228;2023-04-28T04:36:22;8.1;;;6.2;;
77748;SDS011;66938;52.084;5.228;2023-04-28T04:37:59;7.7;;;6.5;;
77748;SDS011;66938;52.084;5.228;2023-04-28T04:39:34;7.0;;;6.2;;
77748;SDS011;66938;52.084;5.228;2023-04-28T04:42:47;7.1;;;6.2;;
77748;SDS011;66938;52.084;5.228;2023-04-28T04:44:23;8.4;;;6.5;;
77748;SDS011;66938;52.084;5.228;2023-04-28T04:45:59;7.5;;;6.5;;
77748;SDS011;66938;52.084;5.228;2023-04-28T04:49:11;7.4;;;6.6;;
77748;SDS011;66938;52.084;5.228;2023-04-28T04:50:47;8.81;;;6.3;;
77748;SDS011;66938;52.084;5.228;2023-04-28T04:52:23;7.4;;;6.4;;
77748;SDS011;66938;52.084;5.228;2023-04-28T04:54:00;7.2;;;6.5;;
77748;SDS011;66938;52.084;5.228;2023-04-28T04:57:12;7.2;;;6.5;;
77748;SDS011;66938;52.084;5.228;2023-04-28T04:58:49;7.7;;;6.6;;
77748;SDS011;66938;52.084;5.228;2023-04-28T05:00:27;7.3;;;6.6;;
77748;SDS011;66938;52.084;5.228;2023-04-28T05:03:40;8.2;;;6.6;;
77748;SDS011;66938;52.084;5.228;2023-04-28T05:05:16;9.31;;;7.1;;
77748;SDS011;66938;52.084;5.228;2023-04-28T05:06:52;9.31;;;7.2;;
77748;SDS011;66938;52.084;5.228;2023-04-28T05:10:04;7.9;;;7.0;;
77748;SDS011;66938;52.084;5.228;2023-04-28T05:11:41;8.71;;;6.9;;
77748;SDS011;66938;52.084;5.228;2023-04-28T05:13:17;7.8;;;6.7;;
77748;SDS011;66938;52.084;5.228;2023-04-28T05:14:53;8.71;;;7.1;;
77748;SDS011;66938;52.084;5.228;2023-04-28T05:18:06;8.1;;;7.2;;
77748;SDS011;66938;52.084;5.228;2023-04-28T05:19:42;8.4;;;7.2;;
77748;SDS011;66938;52.084;5.228;2023-04-28T05:21:18;10.1;;;7.7;;
77748;SDS011;66938;52.084;5.228;2023-04-28T05:24:30;8.5;;;7.6;;
77748;SDS011;66938;52.084;5.228;2023-04-28T05:26:06;8.81;;;8.0;;
77748;SDS011;66938;52.084;5.228;2023-04-28T05:27:42;10.0;;;7.8;;
77748;SDS011;66938;52.084;5.228;2023-04-28T05:30:55;8.81;;;7.9;;
77748;SDS011;66938;52.084;5.228;2023-04-28T05:32:31;9.0;;;7.5;;
77748;SDS011;66938;52.084;5.228;2023-04-28T05:34:09;9.0;;;8.1;;
77748;SDS011;66938;52.084;5.228;2023-04-28T05:37:21;9.1;;;8.2;;
77748;SDS011;66938;52.084;5.228;2023-04-28T05:38:58;9.6;;;8.6;;
77748;SDS011;66938;52.084;5.228;2023-04-28T05:40:34;10.3;;;9.31;;
77748;SDS011;66938;52.084;5.228;2023-04-28T05:42:10;9.9;;;8.9;;
77748;SDS011;66938;52.084;5.228;2023-04-28T05:45:23;9.81;;;8.81;;
77748;SDS011;66938;52.084;5.228;2023-04-28T05:47:00;10.8;;;9.71;;
77748;SDS011;66938;52.084;5.228;2023-04-28T05:48:36;11.2;;;10.0;;
77748;SDS011;66938;52.084;5.228;2023-04-28T05:51:49;12.1;;;10.9;;
77748;SDS011;66938;52.084;5.228;2023-04-28T05:53:25;11.8;;;10.7;;
77748;SDS011;66938;52.084;5.228;2023-04-28T05:55:02;12.2;;;10.9;;
77748;SDS011;66938;52.084;5.228;2023-04-28T05:58:14;12.1;;;10.9;;
77748;SDS011;66938;52.084;5.228;2023-04-28T05:59:50;11.5;;;10.4;;
77748;SDS011;66938;52.084;5.228;2023-04-28T06:01:26;11.6;;;10.5;;
77748;SDS011;66938;52.084;5.228;2023-04-28T06:03:04;11.9;;;10.8;;
77748;SDS011;66938;52.084;5.228;2023-04-28T06:06:16;12.3;;;11.1;;
77748;SDS011;66938;52.084;5.228;2023-04-28T06:07:53;11.9;;;10.8;;
77748;SDS011;66938;52.084;5.228;2023-04-28T06:09:29;11.6;;;10.5;;
77748;SDS011;66938;52.084;5.228;2023-04-28T06:12:41;12.8;;;11.5;;
77748;SDS011;66938;52.084;5.228;2023-04-28T06:14:17;11.8;;;10.7;;
77748;SDS011;66938;52.084;5.228;2023-04-28T06:15:53;12.5;;;11.3;;
77748;SDS011;66938;52.084;5.228;2023-04-28T06:19:05;13.0;;;11.7;;
77748;SDS011;66938;52.084;5.228;2023-04-28T06:20:41;12.4;;;11.2;;
77748;SDS011;66938;52.084;5.228;2023-04-28T06:22:18;12.4;;;11.2;;
77748;SDS011;66938;52.084;5.228;2023-04-28T06:23:54;13.0;;;11.7;;
77748;SDS011;66938;52.084;5.228;2023-04-28T06:27:06;13.7;;;12.4;;
77748;SDS011;66938;52.084;5.228;2023-04-28T06:28:42;13.5;;;12.2;;
77748;SDS011;66938;52.084;5.228;2023-04-28T06:30:19;13.7;;;12.4;;
77748;SDS011;66938;52.084;5.228;2023-04-28T06:33:33;14.7;;;13.3;;
77748;SDS011;66938;52.084;5.228;2023-04-28T06:35:10;14.2;;;12.8;;
77748;SDS011;66938;52.084;5.228;2023-04-28T06:36:46;16.0;;;14.4;;
77748;SDS011;66938;52.084;5.228;2023-04-28T06:39:58;15.2;;;13.9;;
77748;SDS011;66938;52.084;5.228;2023-04-28T06:41:34;15.5;;;14.0;;
77748;SDS011;66938;52.084;5.228;2023-04-28T06:43:10;15.5;;;13.9;;
77748;SDS011;66938;52.084;5.228;2023-04-28T06:46:22;15.9;;;14.4;;
77748;SDS011;66938;52.084;5.228;2023-04-28T06:47:59;15.5;;;14.1;;
77748;SDS011;66938;52.084;5.228;2023-04-28T06:49:35;16.5;;;15.0;;
77748;SDS011;66938;52.084;5.228;2023-04-28T06:51:10;16.8;;;15.2;;
77748;SDS011;66938;52.084;5.228;2023-04-28T06:54:22;16.5;;;15.0;;
77748;SDS011;66938;52.084;5.228;2023-04-28T06:55:59;17.3;;;15.6;;
77748;SDS011;66938;52.084;5.228;2023-04-28T06:57:35;17.11;;;15.5;;
77748;SDS011;66938;52.084;5.228;2023-04-28T07:00:48;16.8;;;15.0;;
77748;SDS011;66938;52.084;5.228;2023-04-28T07:02:24;16.7;;;15.2;;
77748;SDS011;66938;52.084;5.228;2023-04-28T07:04:00;17.3;;;15.7;;
77748;SDS011;66938;52.084;5.228;2023-04-28T07:07:12;18.11;;;16.4;;
77748;SDS011;66938;52.084;5.228;2023-04-28T07:08:48;17.11;;;15.5;;
77748;SDS011;66938;52.084;5.228;2023-04-28T07:10:24;16.8;;;15.2;;
77748;SDS011;66938;52.084;5.228;2023-04-28T07:12:01;17.11;;;15.4;;
77748;SDS011;66938;52.084;5.228;2023-04-28T07:15:14;17.61;;;16.0;;
77748;SDS011;66938;52.084;5.228;2023-04-28T07:16:50;17.0;;;15.5;;
77748;SDS011;66938;52.084;5.228;2023-04-28T07:18:26;17.0;;;15.4;;
77748;SDS011;66938;52.084;5.228;2023-04-28T07:21:39;17.3;;;15.7;;
77748;SDS011;66938;52.084;5.228;2023-04-28T07:23:15;17.61;;;15.9;;
77748;SDS011;66938;52.084;5.228;2023-04-28T07:24:52;17.91;;;16.3;;
77748;SDS011;66938;52.084;5.228;2023-04-28T07:28:05;18.0;;;16.4;;
77748;SDS011;66938;52.084;5.228;2023-04-28T07:29:42;18.3;;;16.7;;
77748;SDS011;66938;52.084;5.228;2023-04-28T07:31:18;18.2;;;16.5;;
77748;SDS011;66938;52.084;5.228;2023-04-28T07:34:30;18.0;;;16.3;;
77748;SDS011;66938;52.084;5.228;2023-04-28T07:36:06;17.61;;;16.11;;
77748;SDS011;66938;52.084;5.228;2023-04-28T07:37:42;18.8;;;17.0;;
77748;SDS011;66938;52.084;5.228;2023-04-28T07:39:19;18.0;;;16.4;;
77748;SDS011;66938;52.084;5.228;2023-04-28T07:42:31;18.2;;;16.4;;
77748;SDS011;66938;52.084;5.228;2023-04-28T07:44:07;19.2;;;17.2;;
77748;SDS011;66938;52.084;5.228;2023-04-28T07:45:43;17.61;;;16.11;;
77748;SDS011;66938;52.084;5.228;2023-04-28T07:48:55;18.2;;;16.61;;
77748;SDS011;66938;52.084;5.228;2023-04-28T07:50:32;18.2;;;16.5;;
77748;SDS011;66938;52.084;5.228;2023-04-28T07:52:09;18.0;;;16.4;;
77748;SDS011;66938;52.084;5.228;2023-04-28T07:55:21;18.3;;;16.7;;
77748;SDS011;66938;52.084;5.228;2023-04-28T07:56:57;17.7;;;16.11;;
77748;SDS011;66938;52.084;5.228;2023-04-28T07:58:33;18.7;;;17.0;;
77748;SDS011;66938;52.084;5.228;2023-04-28T08:00:09;18.3;;;16.7;;
77748;SDS011;66938;52.084;5.228;2023-04-28T08:03:22;18.5;;;16.8;;
77748;SDS011;66938;52.084;5.228;2023-04-28T08:04:59;19.0;;;17.3;;
77748;SDS011;66938;52.084;5.228;2023-04-28T08:06:35;18.91;;;17.2;;
77748;SDS011;66938;52.084;5.228;2023-04-28T08:09:48;19.8;;;18.11;;
77748;SDS011;66938;52.084;5.228;2023-04-28T08:11:23;20.2;;;18.3;;
77748;SDS011;66938;52.084;5.228;2023-04-28T08:13:00;20.2;;;18.3;;
77748;SDS011;66938;52.084;5.228;2023-04-28T08:16:13;20.11;;;18.41;;
77748;SDS011;66938;52.084;5.228;2023-04-28T08:17:49;20.8;;;18.91;;
77748;SDS011;66938;52.084;5.228;2023-04-28T08:19:26;20.6;;;18.7;;
77748;SDS011;66938;52.084;5.228;2023-04-28T08:21:02;21.0;;;19.2;;
77748;SDS011;66938;52.084;5.228;2023-04-28T08:24:14;22.3;;;20.3;;
77748;SDS011;66938;52.084;5.228;2023-04-28T08:25:50;21.8;;;19.8;;
77748;SDS011;66938;52.084;5.228;2023-04-28T08:27:27;23.0;;;20.8;;
77748;SDS011;66938;52.084;5.228;2023-04-28T08:30:39;22.0;;;20.11;;
77748;SDS011;66938;52.084;5.228;2023-04-28T08:32:15;23.5;;;21.4;;
77748;SDS011;66938;52.084;5.228;2023-04-28T08:33:51;22.3;;;20.41;;
77748;SDS011;66938;52.084;5.228;2023-04-28T08:37:05;22.8;;;20.9;;
77748;SDS011;66938;52.084;5.228;2023-04-28T08:38:41;23.3;;;21.4;;
77748;SDS011;66938;52.084;5.228;2023-04-28T08:40:17;25.1;;;22.9;;
77748;SDS011;66938;52.084;5.228;2023-04-28T08:43:31;23.2;;;21.1;;
77748;SDS011;66938;52.084;5.228;2023-04-28T08:45:08;23.2;;;21.1;;
77748;SDS011;66938;52.084;5.228;2023-04-28T08:46:48;24.4;;;22.4;;
77748;SDS011;66938;52.084;5.228;2023-04-28T08:48:28;24.1;;;22.0;;
77748;SDS011;66938;52.084;5.228;2023-04-28T08:51:54;25.0;;;22.9;;
77748;SDS011;66938;52.084;5.228;2023-04-28T08:53:36;23.2;;;21.3;;
77748;SDS011;66938;52.084;5.228;2023-04-28T08:55:13;25.1;;;22.9;;
77748;SDS011;66938;52.084;5.228;2023-04-28T08:56:51;27.5;;;25.2;;
77748;SDS011;66938;52.084;5.228;2023-04-28T09:00:03;26.9;;;24.5;;
77748;SDS011;66938;52.084;5.228;2023-04-28T09:01:40;23.0;;;21.1;;
77748;SDS011;66938;52.084;5.228;2023-04-28T09:03:16;27.0;;;24.7;;
77748;SDS011;66938;52.084;5.228;2023-04-28T09:06:30;26.3;;;24.0;;
77748;SDS011;66938;52.084;5.228;2023-04-28T09:08:08;25.9;;;23.8;;
77748;SDS011;66938;52.084;5.228;2023-04-28T09:09:44;25.7;;;23.5;;
77748;SDS011;66938;52.084;5.228;2023-04-28T09:11:20;25.8;;;23.7;;
77748;SDS011;66938;52.084;5.228;2023-04-28T09:14:34;26.4;;;24.1;;
77748;SDS011;66938;52.084;5.228;2023-04-28T09:16:11;25.3;;;23.3;;
77748;SDS011;66938;52.084;5.228;2023-04-28T09:17:47;25.0;;;22.9;;
77748;SDS011;66938;52.084;5.228;2023-04-28T09:21:08;24.6;;;22.6;;
77748;SDS011;66938;52.084;5.228;2023-04-28T09:22:45;23.5;;;21.5;;
77748;SDS011;66938;52.084;5.228;2023-04-28T09:24:24;25.3;;;23.2;;
77748;SDS011;66938;52.084;5.228;2023-04-28T09:26:06;23.7;;;21.8;;
77748;SDS011;66938;52.084;5.228;2023-04-28T09:29:19;25.5;;;23.4;;
77748;SDS011;66938;52.084;5.228;2023-04-28T09:30:55;26.3;;;24.1;;
77748;SDS011;66938;52.084;5.228;2023-04-28T09:32:31;23.2;;;21.3;;
77748;SDS011;66938;52.084;5.228;2023-04-28T09:35:44;25.8;;;23.6;;
77748;SDS011;66938;52.084;5.228;2023-04-28T09:37:20;24.7;;;22.6;;
77748;SDS011;66938;52.084;5.228;2023-04-28T09:38:58;22.2;;;20.5;;
77748;SDS011;66938;52.084;5.228;2023-04-28T09:40:47;22.9;;;21.1;;
77748;SDS011;66938;52.084;5.228;2023-04-28T09:44:09;23.3;;;21.4;;
77748;SDS011;66938;52.084;5.228;2023-04-28T09:45:46;19.7;;;18.11;;
77748;SDS011;66938;52.084;5.228;2023-04-28T09:47:22;22.1;;;20.41;;
77748;SDS011;66938;52.084;5.228;2023-04-28T09:48:59;20.5;;;18.91;;
77748;SDS011;66938;52.084;5.228;2023-04-28T09:52:15;18.7;;;17.3;;
77748;SDS011;66938;52.084;5.228;2023-04-28T09:53:51;21.8;;;20.11;;
77748;SDS011;66938;52.084;5.228;2023-04-28T09:55:28;20.41;;;18.8;;
77748;SDS011;66938;52.084;5.228;2023-04-28T09:58:45;20.41;;;18.8;;
77748;SDS011;66938;52.084;5.228;2023-04-28T10:00:26;18.11;;;16.8;;
77748;SDS011;66938;52.084;5.228;2023-04-28T10:02:02;18.11;;;16.8;;
77748;SDS011;66938;52.084;5.228;2023-04-28T10:03:40;20.2;;;18.7;;
77748;SDS011;66938;52.084;5.228;2023-04-28T10:06:55;19.2;;;17.7;;
77748;SDS011;66938;52.084;5.228;2023-04-28T10:08:33;22.4;;;20.6;;
77748;SDS011;66938;52.084;5.228;2023-04-28T10:10:09;21.7;;;20.0;;
77748;SDS011;66938;52.084;5.228;2023-04-28T10:13:22;21.7;;;20.0;;
77748;SDS011;66938;52.084;5.228;2023-04-28T10:14:59;20.8;;;19.2;;
77748;SDS011;66938;52.084;5.228;2023-04-28T10:16:37;19.2;;;17.7;;
77748;SDS011;66938;52.084;5.228;2023-04-28T10:18:13;20.3;;;18.7;;
77748;SDS011;66938;52.084;5.228;2023-04-28T10:21:28;21.2;;;19.61;;
77748;SDS011;66938;52.084;5.228;2023-04-28T10:24:17;22.1;;;20.41;;
77748;SDS011;66938;52.084;5.228;2023-04-28T10:26:02;21.1;;;19.5;;
77748;SDS011;66938;52.084;5.228;2023-04-28T10:27:45;20.7;;;19.11;;
77748;SDS011;66938;52.084;5.228;2023-04-28T10:29:24;21.6;;;19.91;;
77748;SDS011;66938;52.084;5.228;2023-04-28T10:31:08;22.3;;;20.6;;
77748;SDS011;66938;52.084;5.228;2023-04-28T10:34:23;21.9;;;20.2;;
77748;SDS011;66938;52.084;5.228;2023-04-28T10:35:59;23.6;;;21.7;;
77748;SDS011;66938;52.084;5.228;2023-04-28T10:38:08;23.9;;;22.0;;
77748;SDS011;66938;52.084;5.228;2023-04-28T10:40:49;24.2;;;22.4;;
77748;SDS011;66938;52.084;5.228;2023-04-28T10:42:49;23.7;;;21.8;;
77748;SDS011;66938;52.084;5.228;2023-04-28T10:44:41;24.9;;;22.9;;
77748;SDS011;66938;52.084;5.228;2023-04-28T10:46:17;23.9;;;22.0;;
77748;SDS011;66938;52.084;5.228;2023-04-28T10:48:00;24.8;;;22.7;;
77748;SDS011;66938;52.084;5.228;2023-04-28T10:50:09;27.0;;;24.8;;
77748;SDS011;66938;52.084;5.228;2023-04-28T10:51:46;25.5;;;23.4;;
77748;SDS011;66938;52.084;5.228;2023-04-28T10:55:43;25.1;;;23.0;;
77748;SDS011;66938;52.084;5.228;2023-04-28T10:57:20;27.1;;;24.9;;
77748;SDS011;66938;52.084;5.228;2023-04-28T10:58:56;28.8;;;26.3;;
77748;SDS011;66938;52.084;5.228;2023-04-28T11:00:33;27.2;;;24.8;;
77748;SDS011;66938;52.084;5.228;2023-04-28T11:02:41;25.0;;;23.0;;
77748;SDS011;66938;52.084;5.228;2023-04-28T11:04:17;27.2;;;24.9;;
77748;SDS011;66938;52.084;5.228;2023-04-28T11:08:33;26.7;;;24.5;;
77748;SDS011;66938;52.084;5.228;2023-04-28T11:10:08;26.6;;;24.3;;
77748;SDS011;66938;52.084;5.228;2023-04-28T11:12:02;24.5;;;22.5;;
77748;SDS011;66938;52.084;5.228;2023-04-28T11:13:40;20.5;;;18.8;;
77748;SDS011;66938;52.084;5.228;2023-04-28T11:15:17;21.5;;;19.7;;
77748;SDS011;66938;52.084;5.228;2023-04-28T11:16:54;20.5;;;18.7;;
77748;SDS011;66938;52.084;5.228;2023-04-28T11:20:23;19.8;;;18.0;;
77748;SDS011;66938;52.084;5.228;2023-04-28T11:22:02;18.41;;;16.8;;
77748;SDS011;66938;52.084;5.228;2023-04-28T11:23:50;17.61;;;16.11;;
77748;SDS011;66938;52.084;5.228;2023-04-28T11:25:27;17.0;;;15.5;;
77748;SDS011;66938;52.084;5.228;2023-04-28T11:28:49;17.11;;;15.5;;
77748;SDS011;66938;52.084;5.228;2023-04-28T11:30:26;16.4;;;15.0;;
77748;SDS011;66938;52.084;5.228;2023-04-28T11:32:02;15.8;;;14.3;;
77748;SDS011;66938;52.084;5.228;2023-04-28T11:33:39;15.7;;;14.2;;
77748;SDS011;66938;52.084;5.228;2023-04-28T11:36:53;16.8;;;15.2;;
77748;SDS011;66938;52.084;5.228;2023-04-28T11:38:30;14.6;;;13.2;;
77748;SDS011;66938;52.084;5.228;2023-04-28T11:40:18;14.6;;;13.2;;
77748;SDS011;66938;52.084;5.228;2023-04-28T11:41:54;15.2;;;13.7;;
77748;SDS011;66938;52.084;5.228;2023-04-28T11:45:07;14.4;;;13.1;;
77748;SDS011;66938;52.084;5.228;2023-04-28T11:46:49;15.0;;;13.7;;
77748;SDS011;66938;52.084;5.228;2023-04-28T11:48:25;14.1;;;12.8;;
77748;SDS011;66938;52.084;5.228;2023-04-28T11:51:38;13.6;;;12.3;;
77748;SDS011;66938;52.084;5.228;2023-04-28T11:53:14;11.3;;;10.3;;
77748;SDS011;66938;52.084;5.228;2023-04-28T11:54:53;11.7;;;10.6;;
77748;SDS011;66938;52.084;5.228;2023-04-28T11:56:35;9.71;;;8.6;;
77748;SDS011;66938;52.084;5.228;2023-04-28T12:00:10;8.1;;;7.3;;
77748;SDS011;66938;52.084;5.228;2023-04-28T12:01:49;7.6;;;6.9;;
77748;SDS011;66938;52.084;5.228;2023-04-28T12:03:26;7.2;;;6.5;;
77748;SDS011;66938;52.084;5.228;2023-04-28T12:05:04;7.2;;;6.5;;
77748;SDS011;66938;52.084;5.228;2023-04-28T12:08:26;7.1;;;6.4;;
77748;SDS011;66938;52.084;5.228;2023-04-28T12:10:10;7.8;;;6.2;;
77748;SDS011;66938;52.084;5.228;2023-04-28T12:11:52;7.3;;;6.2;;
77748;SDS011;66938;52.084;5.228;2023-04-28T12:13:30;7.5;;;5.7;;
77748;SDS011;66938;52.084;5.228;2023-04-28T12:16:45;5.0;;;4.5;;
77748;SDS011;66938;52.084;5.228;2023-04-28T12:18:21;4.7;;;4.0;;
77748;SDS011;66938;52.084;5.228;2023-04-28T12:19:57;3.5;;;3.2;;
77748;SDS011;66938;52.084;5.228;2023-04-28T12:23:12;4.61;;;3.3;;
77748;SDS011;66938;52.084;5.228;2023-04-28T12:25:01;4.1;;;3.1;;
77748;SDS011;66938;52.084;5.228;2023-04-28T12:26:38;3.8;;;3.1;;
77748;SDS011;66938;52.084;5.228;2023-04-28T12:28:14;3.7;;;2.7;;
77748;SDS011;66938;52.084;5.228;2023-04-28T12:31:27;3.9;;;3.0;;
77748;SDS011;66938;52.084;5.228;2023-04-28T12:33:03;3.4;;;2.5;;
77748;SDS011;66938;52.084;5.228;2023-04-28T12:34:39;3.7;;;2.9;;
77748;SDS011;66938;52.084;5.228;2023-04-28T12:36:17;3.7;;;3.4;;
77748;SDS011;66938;52.084;5.228;2023-04-28T12:39:31;3.7;;;3.0;;
77748;SDS011;66938;52.084;5.228;2023-04-28T12:41:07;3.1;;;2.8;;
77748;SDS011;66938;52.084;5.228;2023-04-28T12:42:44;3.5;;;3.2;;
77748;SDS011;66938;52.084;5.228;2023-04-28T12:45:56;3.9;;;3.6;;
77748;SDS011;66938;52.084;5.228;2023-04-28T12:47:31;4.7;;;4.3;;